Reepham, United Kingdom
Current Conditions -  °F | °C
As of 7:50 PM on Thursday 23 Oct 2014 (Local Time) from EGXW Reporting Station
Light Rain Light Rain  
Wind Chill: 14°   Ceiling: 1800
Heat Index: 14°   Visibility: 6mi
Dew Point: 12°   Wind: 14mph
Humidity: 88%   Direction: 210°SSW
Pressure: 29.91"   Gusts: NA
Location:  53.23°N, 0.43°W
Report Text: EGXW 231850Z 21012KT 9999 -RADZ BKN018 OVC038 14/12 Q1013 WHT TEMPO 7000 -RADZ SCT014 GRN
Loading
Personal Weather Stations






























Interactive Weather Map
Tropical Storm Tracking
New forecast layout! Learn more

10-Day Weather Forecast

Advertisements
Track Severe Weather on mobile